Time;durP1;ratioP1;P1;durP2;ratioP2;P2;SDS_P1;SDS_P2;PMS_P1;PMS_P2;Temp;Humidity;BMP_temperature;BMP_pressure;BME280_temperature;BME280_humidity;BME280_pressure;Samples;Min_cycle;Max_cycle;Signal;HPM_P1;HPM_P2
2023/12/28 04:46:15;;;;;;;142.50;64.80;;;;;;;-2.75;100.00;99131.52;264572;1284;23166;-85
2023/12/28 04:52:43;;;;;;;136.70;67.20;;;;;;;-2.69;100.00;99149.41;271935;1287;22231;-85
2023/12/28 05:06:55;;;;;;;120.10;55.20;;;;;;;-2.60;100.00;99145.71;272255;1284;24136;-84
2023/12/28 05:13:23;;;;;;;122.80;55.20;;;;;;;-2.56;100.00;99151.51;271790;1287;22964;-84
2023/12/28 05:34:40;;;;;;;104.50;50.80;;;;;;;-2.60;100.00;99142.34;271969;1286;22398;-84
2023/12/28 05:41:35;;;;;;;105.20;50.30;;;;;;;-2.62;100.00;99130.14;271823;1287;22204;-84
2023/12/28 05:48:27;;;;;;;101.20;48.70;;;;;;;-2.61;100.00;99121.34;271928;1268;22761;-84
2023/12/28 05:55:52;;;;;;;104.30;50.20;;;;;;;-2.65;100.00;99131.68;272023;1287;22222;-84
2023/12/28 06:02:56;;;;;;;94.60;48.50;;;;;;;-2.78;100.00;99147.70;272165;1286;22955;-83
2023/12/28 06:09:36;;;;;;;115.20;55.50;;;;;;;-2.79;100.00;99168.16;272439;1285;22191;-84
2023/12/28 06:17:28;;;;;;;102.90;50.70;;;;;;;-2.75;100.00;99182.54;270992;1284;25442;-83
2023/12/28 06:23:58;;;;;;;118.00;56.10;;;;;;;-2.75;100.00;99179.23;268587;1282;23357;-84
2023/12/28 06:37:46;;;;;;;115.10;55.50;;;;;;;-2.82;100.00;99174.69;270667;1286;24530;-84
2023/12/28 06:52:45;;;;;;;112.60;55.40;;;;;;;-2.80;100.00;99157.73;269166;1292;23594;-83
2023/12/28 06:59:12;;;;;;;115.00;54.70;;;;;;;-2.76;100.00;99153.02;269574;1291;22648;-82
2023/12/28 07:20:49;;;;;;;111.50;55.60;;;;;;;-2.57;100.00;99172.43;271435;1286;22301;-82
2023/12/28 07:27:16;;;;;;;126.70;60.50;;;;;;;-2.46;100.00;99181.27;271957;1279;22203;-81
2023/12/28 07:33:17;;;;;;;;;;;;;;;-2.39;100.00;99196.67;272057;1287;22451;-81
2023/12/28 07:39:19;;;;;;;151.50;74.00;;;;;;;-2.23;100.00;99176.80;271864;1278;22304;-81
2023/12/28 08:13:37;;;;;;;114.20;64.00;;;;;;;-0.84;100.00;99161.59;267039;1278;558318;-82
2023/12/28 08:19:40;;;;;;;116.80;62.10;;;;;;;-0.43;100.00;99149.04;271395;1279;22342;-82
2023/12/28 08:25:42;;;;;;;144.10;73.20;;;;;;;-0.26;100.00;99166.02;271812;1279;22880;-83
2023/12/28 08:32:10;;;;;;;129.90;66.30;;;;;;;-0.09;100.00;99170.46;271300;1279;22355;-84
2023/12/28 08:38:12;;;;;;;140.60;70.60;;;;;;;0.19;100.00;99166.09;272215;1281;22249;-84
2023/12/28 08:44:14;;;;;;;130.20;65.10;;;;;;;0.70;100.00;99168.23;272049;1286;23554;-83
2023/12/28 08:50:16;;;;;;;126.10;63.80;;;;;;;1.27;100.00;99165.21;272224;1280;22204;-83
2023/12/28 08:56:20;;;;;;;118.40;56.60;;;;;;;1.69;100.00;99174.56;272245;1283;22195;-83
2023/12/28 09:02:22;;;;;;;110.10;57.70;;;;;;;2.34;100.00;99174.36;272167;1285;22201;-83
2023/12/28 09:08:24;;;;;;;105.50;55.80;;;;;;;2.96;100.00;99165.23;272152;1279;22208;-84
2023/12/28 09:14:26;;;;;;;100.40;50.70;;;;;;;3.64;100.00;99157.77;272186;1283;23397;-83
2023/12/28 09:20:40;;;;;;;86.50;46.00;;;;;;;4.37;100.00;99155.09;270862;1279;22568;-84
2023/12/28 09:26:44;;;;;;;81.30;42.90;;;;;;;5.16;100.00;99150.29;270990;1279;22197;-84
2023/12/28 09:32:46;;;;;;;81.20;41.60;;;;;;;5.91;100.00;99147.38;272275;1280;22209;-85
2023/12/28 09:38:48;;;;;;;71.30;38.90;;;;;;;6.31;100.00;99141.84;272306;1264;22371;-85
2023/12/28 09:44:50;;;;;;;76.50;37.90;;;;;;;6.61;100.00;99137.11;271223;1280;25354;-86
2023/12/28 09:50:54;;;;;;;77.80;39.60;;;;;;;7.31;100.00;99139.67;271533;1279;22211;-86
2023/12/28 09:56:56;;;;;;;68.80;40.00;;;;;;;7.80;100.00;99139.34;272115;1269;22220;-86
2023/12/28 10:02:58;;;;;;;64.70;37.60;;;;;;;8.08;100.00;99133.77;272199;1280;23086;-86
2023/12/28 10:09:00;;;;;;;67.10;37.50;;;;;;;8.44;100.00;99145.77;272180;1279;22262;-86
2023/12/28 10:15:04;;;;;;;72.50;41.80;;;;;;;8.76;100.00;99146.20;272294;1273;22180;-87
2023/12/28 10:21:07;;;;;;;70.70;39.80;;;;;;;8.99;100.00;99133.56;272255;1283;22968;-87
2023/12/28 10:27:28;;;;;;;67.90;37.10;;;;;;;9.24;100.00;99122.97;272133;1280;22236;-86
2023/12/28 10:33:37;;;;;;;58.30;34.40;;;;;;;9.36;100.00;99115.06;272320;1280;22190;-86
2023/12/28 10:39:40;;;;;;;53.90;32.80;;;;;;;9.22;100.00;99100.38;272094;1286;22977;-87
2023/12/28 10:46:02;;;;;;;55.60;31.40;;;;;;;9.11;99.86;99097.45;272323;1279;22264;-87
2023/12/28 10:52:45;;;;;;;58.90;31.40;;;;;;;9.06;98.38;99107.17;272247;1282;22208;-87
2023/12/28 11:06:46;;;;;;;51.90;32.00;;;;;;;8.48;97.40;99126.54;272202;1282;22203;-87
2023/12/28 11:20:18;;;;;;;50.50;30.00;;;;;;;8.14;98.50;99117.23;271545;1285;22532;-89
2023/12/28 11:43:11;;;;;;;38.60;21.50;;;;;;;8.21;98.48;99064.19;272185;1279;22188;-89
2023/12/28 11:51:07;;;;;;;31.90;17.60;;;;;;;8.10;98.12;99058.65;267434;1282;23448;-89
2023/12/28 12:06:02;;;;;;;39.50;21.00;;;;;;;7.75;97.50;99073.90;265822;1311;22454;-88
2023/12/28 12:20:38;;;;;;;40.10;22.90;;;;;;;7.56;97.54;99047.45;267320;1294;22269;-89
2023/12/28 12:26:54;;;;;;;39.10;22.10;;;;;;;7.52;97.54;99034.52;271140;1280;22234;-89
2023/12/28 13:05:18;;;;;;;47.00;24.40;;;;;;;7.60;96.59;99021.88;272962;1281;22211;-90
2023/12/28 13:11:35;;;;;;;41.70;23.70;;;;;;;7.61;96.95;99002.75;272938;1280;23353;-89
2023/12/28 13:18:21;;;;;;;39.90;23.90;;;;;;;7.57;96.57;99002.50;272654;1278;22221;-89
2023/12/28 13:24:23;;;;;;;41.60;23.30;;;;;;;7.50;96.36;99007.86;272956;1275;22509;-89
2023/12/28 13:30:28;;;;;;;51.40;26.50;;;;;;;7.43;96.38;99014.77;273267;1269;22389;-89
2023/12/28 13:36:30;;;;;;;53.30;27.60;;;;;;;7.41;96.63;99012.39;273527;1269;23283;-88
2023/12/28 13:42:32;;;;;;;46.80;26.80;;;;;;;7.40;96.72;99005.45;273382;1270;22369;-89
2023/12/28 13:48:35;;;;;;;54.30;28.30;;;;;;;7.35;96.51;99003.06;273469;1270;22335;-89
2023/12/28 13:54:37;;;;;;;56.60;28.90;;;;;;;7.27;96.56;99006.60;273283;1269;23206;-89
2023/12/28 14:00:40;;;;;;;56.40;29.20;;;;;;;7.12;96.34;99007.02;273386;1269;22288;-88
2023/12/28 14:06:41;;;;;;;47.90;27.00;;;;;;;6.98;96.60;99010.64;273541;1269;22410;-88
2023/12/28 14:12:43;;;;;;;49.20;26.50;;;;;;;6.85;96.55;99025.36;273400;1270;22205;-88
2023/12/28 14:18:46;;;;;;;48.70;26.60;;;;;;;6.62;96.51;99043.33;273405;1269;22387;-89
2023/12/28 14:24:48;;;;;;;49.60;27.60;;;;;;;6.51;97.19;99032.05;273383;1259;23621;-88
2023/12/28 14:30:50;;;;;;;58.60;29.30;;;;;;;6.55;97.11;99030.45;273465;1269;22684;-89
2023/12/28 14:36:53;;;;;;;68.30;34.50;;;;;;;6.50;97.22;99038.88;273079;1269;22338;-89
2023/12/28 14:42:55;;;;;;;69.40;35.80;;;;;;;6.43;97.45;99048.56;273195;1257;22440;-89
2023/12/28 14:48:57;;;;;;;59.30;33.90;;;;;;;6.28;97.49;99053.42;273531;1270;22219;-88
2023/12/28 14:55:46;;;;;;;62.70;33.00;;;;;;;6.12;97.74;99056.68;273558;1276;22280;-89
2023/12/28 15:01:49;;;;;;;64.30;32.20;;;;;;;5.92;97.84;99063.21;273297;1277;22539;-89
2023/12/28 15:08:52;;;;;;;61.20;31.10;;;;;;;5.68;97.86;99069.44;273357;1276;22175;-89
2023/12/28 15:15:29;;;;;;;59.20;30.40;;;;;;;5.48;98.42;99065.52;272166;1272;22402;-90
2023/12/28 15:21:32;;;;;;;50.80;25.40;;;;;;;5.30;98.46;99057.55;272639;1267;23652;-90
2023/12/28 15:43:34;;;;;;;43.00;20.40;;;;;;;5.30;99.84;99048.16;274025;1273;23554;-89
2023/12/28 16:04:40;;;;;;;43.40;20.30;;;;;;;5.94;100.00;99049.07;274010;1269;22410;-90
2023/12/28 16:11:26;;;;;;;38.60;16.70;;;;;;;6.01;100.00;99035.92;273747;1272;22363;-90
2023/12/28 16:18:14;;;;;;;29.20;15.10;;;;;;;6.11;100.00;99029.85;273634;1267;22205;-90
2023/12/28 16:24:41;;;;;;;26.80;14.40;;;;;;;6.07;100.00;99020.58;273680;1267;22640;-89
2023/12/28 16:31:08;;;;;;;30.10;15.50;;;;;;;6.09;100.00;99020.95;272851;1267;23193;-90
2023/12/28 16:37:56;;;;;;;44.60;23.00;;;;;;;6.03;100.00;99037.84;274035;1269;23194;-90
2023/12/28 16:45:26;;;;;;;81.90;35.80;;;;;;;6.00;100.00;99053.91;271950;1266;23270;-90
2023/12/28 16:51:28;;;;;;;68.30;32.00;;;;;;;6.02;100.00;99064.59;272087;1266;23730;-89
2023/12/28 16:58:11;;;;;;;80.00;40.10;;;;;;;6.03;100.00;99062.59;272208;1265;22329;-90
2023/12/28 17:05:14;;;;;;;89.20;44.50;;;;;;;6.10;100.00;99053.88;272567;1278;22259;-89
2023/12/28 17:12:24;;;;;;;63.80;34.90;;;;;;;5.96;100.00;99049.14;272606;1274;22306;-89
2023/12/28 17:18:51;;;;;;;119.20;55.00;;;;;;;5.84;100.00;99032.35;273727;1266;22170;-89
2023/12/28 18:20:38;;;;;;;54.80;27.20;;;;;;;4.33;100.00;99040.19;273466;1275;22267;-90
2023/12/28 18:27:31;;;;;;;52.00;28.60;;;;;;;4.16;100.00;99043.04;274117;1272;22237;-89
2023/12/28 18:33:58;;;;;;;63.80;32.30;;;;;;;3.99;100.00;99038.91;273933;1262;22254;-89
2023/12/28 18:40:00;;;;;;;60.80;30.90;;;;;;;3.88;100.00;99036.48;273747;1272;22204;-89
2023/12/28 18:46:44;;;;;;;59.50;31.00;;;;;;;3.84;100.00;99032.43;273700;1275;22167;-90
2023/12/28 18:53:28;;;;;;;53.20;27.30;;;;;;;3.79;100.00;99026.70;273826;1275;24020;-89
2023/12/28 19:00:12;;;;;;;54.70;27.90;;;;;;;3.56;100.00;99022.80;274024;1275;22355;-88
2023/12/28 19:06:44;;;;;;;46.70;23.60;;;;;;;3.40;100.00;99012.73;273869;1272;22353;-90
2023/12/28 19:12:53;;;;;;;50.60;27.30;;;;;;;3.23;100.00;99013.77;273804;1269;22957;-89
2023/12/28 19:20:17;;;;;;;50.90;25.40;;;;;;;3.14;100.00;99005.84;273752;1275;22173;-90
2023/12/28 19:28:00;;;;;;;51.80;27.10;;;;;;;3.02;100.00;99010.51;273806;1261;22276;-88
2023/12/28 19:35:09;;;;;;;64.90;29.70;;;;;;;2.82;100.00;99008.17;273300;1278;22699;-89
2023/12/28 19:41:14;;;;;;;77.80;37.30;;;;;;;2.69;100.00;99020.65;273124;1275;23629;-90
2023/12/28 19:48:01;;;;;;;82.20;39.80;;;;;;;2.59;100.00;99028.64;273265;1273;23617;-90
2023/12/28 19:54:27;;;;;;;71.10;34.00;;;;;;;2.56;100.00;99024.66;273091;1278;22219;-91
2023/12/28 20:00:50;;;;;;;61.30;31.40;;;;;;;2.54;100.00;99018.73;273052;1277;23355;-90
2023/12/28 20:07:34;;;;;;;86.30;42.00;;;;;;;2.41;100.00;99028.95;273811;1269;22251;-90
2023/12/28 20:14:21;;;;;;;98.50;44.50;;;;;;;2.34;100.00;99036.21;273767;1256;409514;-90
2023/12/28 20:20:24;;;;;;;98.60;47.90;;;;;;;2.30;100.00;99028.45;273674;1266;22217;-91
2023/12/28 20:27:15;;;;;;;101.90;48.20;;;;;;;2.32;100.00;99015.21;273825;1274;22294;-90
2023/12/28 20:34:37;;;;;;;92.80;42.30;;;;;;;2.31;100.00;99012.23;274127;1274;22178;-90
2023/12/28 20:41:04;;;;;;;112.90;50.90;;;;;;;2.18;100.00;99013.08;272109;1267;23368;-89
2023/12/28 20:47:51;;;;;;;132.70;65.70;;;;;;;2.11;100.00;99018.27;271850;1266;22607;-90
2023/12/28 20:54:55;;;;;;;102.10;52.10;;;;;;;2.21;100.00;99014.61;272837;1274;22542;-91
2023/12/28 21:01:39;;;;;;;126.90;59.20;;;;;;;2.33;100.00;99016.31;271494;1272;22564;-90
2023/12/28 21:08:29;;;;;;;112.20;53.10;;;;;;;2.44;100.00;99019.66;274013;1275;22236;-90
2023/12/28 21:15:41;;;;;;;124.20;59.90;;;;;;;2.48;100.00;99024.90;274047;1275;22277;-91
2023/12/28 21:21:50;;;;;;;124.20;64.90;;;;;;;2.50;100.00;99029.66;273905;1274;22432;-90
2023/12/28 21:28:34;;;;;;;109.20;54.90;;;;;;;2.55;100.00;99025.84;273788;1270;22201;-89
2023/12/28 21:35:58;;;;;;;128.30;61.30;;;;;;;2.52;100.00;99028.20;273356;1275;22268;-90
2023/12/28 21:43:55;;;;;;;120.60;57.10;;;;;;;2.47;100.00;99040.16;271529;1288;22255;-90
2023/12/28 21:51:05;;;;;;;126.10;63.70;;;;;;;2.39;100.00;99039.61;270936;1287;22958;-90
2023/12/28 21:57:08;;;;;;;118.00;59.80;;;;;;;2.49;100.00;99037.09;271308;1281;22255;-89
2023/12/28 22:03:11;;;;;;;118.60;60.60;;;;;;;2.39;100.00;99040.96;270691;1275;22529;-89
2023/12/28 22:09:52;;;;;;;117.30;64.10;;;;;;;2.33;100.00;99048.25;272052;1280;22266;-89
2023/12/28 22:17:15;;;;;;;115.80;58.20;;;;;;;2.28;100.00;99049.52;273022;1280;22276;-89
2023/12/28 22:23:40;;;;;;;106.40;55.40;;;;;;;2.13;100.00;99061.36;274065;1275;23531;-89
2023/12/28 22:29:44;;;;;;;120.60;59.80;;;;;;;2.04;100.00;99056.23;272888;1273;22581;-89
2023/12/28 22:36:43;;;;;;;126.40;64.10;;;;;;;2.16;100.00;99036.91;272224;1272;22557;-88
2023/12/28 22:42:47;;;;;;;111.70;58.50;;;;;;;2.38;100.00;99035.66;274091;1270;22257;-89
2023/12/28 22:57:45;;;;;;;93.70;51.90;;;;;;;2.56;100.00;99037.95;273387;1273;22288;-89
2023/12/28 23:03:47;;;;;;;105.40;55.60;;;;;;;2.60;100.00;99037.79;273899;1274;22306;-89
2023/12/28 23:10:31;;;;;;;93.70;48.60;;;;;;;2.59;100.00;99040.84;274042;1273;22177;-88
2023/12/28 23:25:38;;;;;;;94.20;50.00;;;;;;;2.82;100.00;99034.20;273882;1273;22206;-88
2023/12/28 23:32:34;;;;;;;86.20;43.10;;;;;;;3.05;100.00;99028.30;273993;1273;22191;-88
2023/12/28 23:39:58;;;;;;;86.30;44.50;;;;;;;3.37;100.00;99022.60;274293;1273;22335;-89
2023/12/28 23:54:31;;;;;;;90.40;48.20;;;;;;;3.80;100.00;99015.92;272592;1281;22354;-90
